Time;durP1;ratioP1;P1;durP2;ratioP2;P2;SDS_P1;SDS_P2;PMS_P1;PMS_P2;Temp;Humidity;BMP_temperature;BMP_pressure;BME280_temperature;BME280_humidity;BME280_pressure;Samples;Min_cycle;Max_cycle;Signal;HPM_P1;HPM_P2
2021/12/08 00:01:42;;;;;;;3.30;1.10;;;20.20;48.90;;;;;;5015370;28;20502;-61
2021/12/08 00:04:08;;;;;;;3.30;0.80;;;20.20;48.80;;;;;;5015189;28;20062;-61
2021/12/08 00:06:33;;;;;;;3.70;0.90;;;20.20;48.80;;;;;;5015890;28;20184;-61
2021/12/08 00:09:16;;;;;;;2.97;0.93;;;20.10;48.80;;;;;;5015569;28;20401;-61
2021/12/08 00:14:26;;;;;;;3.40;0.95;;;20.10;48.70;;;;;;5015890;28;20053;-61
2021/12/08 00:16:51;;;;;;;3.80;1.17;;;20.10;48.70;;;;;;5014706;28;20338;-60
2021/12/08 00:19:17;;;;;;;5.20;1.10;;;20.10;48.70;;;;;;5015198;28;20088;-61
2021/12/08 00:21:42;;;;;;;5.18;1.35;;;20.10;48.70;;;;;;5015100;28;20091;-61
2021/12/08 00:24:08;;;;;;;3.70;1.10;;;20.10;48.60;;;;;;5014834;28;20060;-61
2021/12/08 00:26:35;;;;;;;2.95;1.10;;;20.10;48.60;;;;;;5015372;28;20045;-61
2021/12/08 00:29:02;;;;;;;3.70;0.95;;;20.00;48.50;;;;;;5015217;28;20632;-61
2021/12/08 00:31:27;;;;;;;4.93;1.20;;;20.00;48.50;;;;;;5014843;28;20049;-61
2021/12/08 00:33:53;;;;;;;5.00;1.20;;;20.00;48.50;;;;;;5015035;28;20056;-61
2021/12/08 00:36:20;;;;;;;4.35;1.13;;;20.00;48.50;;;;;;5015417;28;20520;-61
2021/12/08 00:38:46;;;;;;;4.50;1.10;;;20.00;48.50;;;;;;5014034;28;20472;-61
2021/12/08 00:41:11;;;;;;;2.67;1.10;;;20.00;49.20;;;;;;4997937;28;20133;-61
2021/12/08 00:43:37;;;;;;;2.92;0.95;;;19.90;48.50;;;;;;5015303;28;20137;-62
2021/12/08 00:46:03;;;;;;;3.33;0.98;;;19.90;48.50;;;;;;5014318;28;20050;-61
2021/12/08 00:48:28;;;;;;;3.85;1.00;;;19.90;48.50;;;;;;5015367;28;20042;-61
2021/12/08 00:50:54;;;;;;;3.00;0.82;;;19.90;48.60;;;;;;5014587;28;20140;-60
2021/12/08 00:53:19;;;;;;;2.78;0.95;;;19.90;48.60;;;;;;4996448;28;20065;-61
2021/12/08 00:55:45;;;;;;;3.45;1.15;;;19.90;48.60;;;;;;5014943;28;20077;-61
2021/12/08 00:58:11;;;;;;;3.58;1.05;;;19.90;48.60;;;;;;5014837;28;20096;-60
2021/12/08 01:00:38;;;;;;;3.50;1.23;;;19.90;48.60;;;;;;5013918;28;20057;-61
2021/12/08 01:03:05;;;;;;;3.53;0.88;;;19.90;48.60;;;;;;5014470;28;20482;-61
2021/12/08 01:05:40;;;;;;;3.40;1.02;;;19.90;48.60;;;;;;5014725;28;20046;-61
2021/12/08 01:08:06;;;;;;;1.75;0.65;;;19.90;48.50;;;;;;5014360;28;20050;-60
2021/12/08 01:10:32;;;;;;;2.00;0.75;;;19.80;48.50;;;;;;5014819;28;20046;-61
2021/12/08 01:12:57;;;;;;;3.47;0.85;;;19.80;48.50;;;;;;4996294;28;20441;-61
2021/12/08 01:15:25;;;;;;;3.75;0.90;;;19.80;48.50;;;;;;5014429;28;20133;-61
2021/12/08 01:17:51;;;;;;;3.47;1.10;;;19.80;48.60;;;;;;5014243;28;20037;-61
2021/12/08 01:20:17;;;;;;;3.65;1.13;;;19.80;48.60;;;;;;5013535;28;20045;-61
2021/12/08 01:22:43;;;;;;;3.20;0.85;;;19.80;48.50;;;;;;5014253;28;20080;-61
2021/12/08 01:25:08;;;;;;;3.78;1.02;;;19.80;48.60;;;;;;5014600;28;20045;-61
2021/12/08 01:27:34;;;;;;;3.17;0.73;;;19.80;48.60;;;;;;5013701;28;20117;-61
2021/12/08 01:30:00;;;;;;;2.75;0.90;;;19.80;48.60;;;;;;4996312;28;20897;-61
2021/12/08 01:32:26;;;;;;;4.57;1.00;;;19.80;48.60;;;;;;4996215;28;20476;-61
2021/12/08 01:34:53;;;;;;;2.90;0.90;;;19.70;48.60;;;;;;5012647;28;20128;-60
2021/12/08 01:37:22;;;;;;;2.38;0.70;;;19.70;48.50;;;;;;5014320;28;20041;-61
2021/12/08 01:39:47;;;;;;;1.85;0.73;;;19.70;48.50;;;;;;5013942;28;20497;-61
2021/12/08 01:42:17;;;;;;;2.97;0.70;;;19.70;48.50;;;;;;5013543;28;20042;-61
2021/12/08 01:47:28;;;;;;;2.35;0.82;;;19.70;48.50;;;;;;5013744;28;20518;-61
2021/12/08 01:49:53;;;;;;;4.03;0.80;;;19.70;48.50;;;;;;4995290;28;20046;-61
2021/12/08 01:52:19;;;;;;;2.80;0.70;;;19.70;48.50;;;;;;5014029;28;20030;-61
2021/12/08 01:54:44;;;;;;;1.23;0.50;;;19.60;48.50;;;;;;5013208;28;20610;-61
2021/12/08 01:57:10;;;;;;;2.85;0.65;;;19.60;48.40;;;;;;5013200;28;20042;-61
2021/12/08 01:59:35;;;;;;;2.95;0.68;;;19.60;48.40;;;;;;5013626;28;20050;-60
2021/12/08 02:02:01;;;;;;;1.88;0.68;;;19.60;48.40;;;;;;5012671;28;20134;-60
2021/12/08 02:04:27;;;;;;;2.08;0.75;;;19.60;48.40;;;;;;4994968;28;20478;-61
2021/12/08 02:06:52;;;;;;;3.22;0.70;;;19.60;48.50;;;;;;5013552;28;20056;-61
2021/12/08 02:09:18;;;;;;;1.38;0.55;;;19.60;48.50;;;;;;5013028;28;20038;-61
2021/12/08 02:11:48;;;;;;;2.28;0.60;;;19.60;48.50;;;;;;5013182;28;20038;-60
2021/12/08 02:14:14;;;;;;;2.58;0.70;;;19.60;48.50;;;;;;5013571;28;20095;-60
2021/12/08 02:16:39;;;;;;;3.53;0.88;;;19.60;48.50;;;;;;5012493;28;20441;-61
2021/12/08 02:19:05;;;;;;;2.35;0.60;;;19.60;48.50;;;;;;5012930;28;20050;-61
2021/12/08 02:21:35;;;;;;;2.38;0.70;;;19.60;48.60;;;;;;4995802;28;20045;-61
2021/12/08 02:24:04;;;;;;;3.47;0.68;;;19.60;48.60;;;;;;5012463;28;20552;-61
2021/12/08 02:26:29;;;;;;;3.67;0.80;;;19.60;48.50;;;;;;5013454;28;20129;-61
2021/12/08 02:28:55;;;;;;;3.45;0.80;;;19.60;48.50;;;;;;5013176;28;20118;-61
2021/12/08 02:31:32;;;;;;;1.73;0.57;;;19.60;48.50;;;;;;4995029;28;20058;-61
2021/12/08 02:47:57;;;;;;;3.08;0.70;;;19.60;48.60;;;;;;5013287;28;20129;-61
2021/12/08 02:50:30;;;;;;;3.50;0.52;;;19.60;48.50;;;;;;5013014;28;20069;-61
2021/12/08 02:52:56;;;;;;;2.70;0.60;;;19.60;48.60;;;;;;5012244;28;20084;-61
2021/12/08 02:55:22;;;;;;;2.15;0.68;;;19.60;48.50;;;;;;5012796;28;20052;-61
2021/12/08 02:57:47;;;;;;;3.78;0.88;;;19.60;48.50;;;;;;5012833;28;20042;-61
2021/12/08 03:00:16;;;;;;;1.23;0.57;;;19.60;48.60;;;;;;5011703;28;20100;-61
2021/12/08 03:02:41;;;;;;;;;;;19.70;48.60;;;;;;5012926;28;20108;-61
2021/12/08 03:05:07;;;;;;;1.35;0.60;;;19.60;48.60;;;;;;5012394;28;19925;-61
2021/12/08 03:07:32;;;;;;;1.55;0.47;;;19.70;48.70;;;;;;5012117;28;20045;-61
2021/12/08 03:10:05;;;;;;;2.45;0.80;;;19.70;48.60;;;;;;5012142;28;20129;-61
2021/12/08 03:12:30;;;;;;;2.25;0.55;;;19.70;48.60;;;;;;5011967;28;20509;-61
2021/12/08 03:14:56;;;;;;;3.50;0.90;;;19.70;48.50;;;;;;5012452;28;20561;-60
2021/12/08 03:17:21;;;;;;;1.70;0.45;;;19.70;48.60;;;;;;5016801;28;20041;-61
2021/12/08 03:19:47;;;;;;;2.22;0.55;;;19.70;48.50;;;;;;5015888;28;20049;-61
2021/12/08 03:22:12;;;;;;;1.52;0.55;;;19.70;48.50;;;;;;5016854;28;20050;-61
2021/12/08 03:24:41;;;;;;;4.30;0.60;;;19.70;48.50;;;;;;5016608;28;20033;-61
2021/12/08 03:27:20;;;;;;;3.33;0.73;;;19.70;48.40;;;;;;5016035;28;20060;-61
2021/12/08 03:29:53;;;;;;;2.22;0.50;;;19.70;48.50;;;;;;5016155;28;20398;-61
2021/12/08 03:32:27;;;;;;;2.00;0.52;;;19.80;48.50;;;;;;5016649;28;20050;-60
2021/12/08 03:34:52;;;;;;;1.52;0.50;;;19.80;49.20;;;;;;5015166;28;20433;-60
2021/12/08 03:37:26;;;;;;;1.63;0.50;;;19.80;48.40;;;;;;5016544;28;20497;-60
2021/12/08 03:39:52;;;;;;;1.80;0.65;;;19.80;48.50;;;;;;5016222;28;20132;-61
2021/12/08 03:42:20;;;;;;;1.75;0.60;;;19.80;48.50;;;;;;5015354;28;20125;-60
2021/12/08 03:44:47;;;;;;;2.45;0.60;;;19.80;48.50;;;;;;5016093;28;20053;-60
2021/12/08 03:47:15;;;;;;;1.77;0.52;;;19.80;48.40;;;;;;5016283;28;20120;-61
2021/12/08 03:49:46;;;;;;;2.28;0.60;;;19.80;48.40;;;;;;4997987;28;20138;-61
2021/12/08 03:52:11;;;;;;;1.63;0.50;;;19.80;48.40;;;;;;5016438;28;20049;-60
2021/12/08 03:54:37;;;;;;;1.60;0.57;;;19.90;48.50;;;;;;5015329;28;20048;-60
2021/12/08 03:57:03;;;;;;;1.15;0.40;;;19.90;48.50;;;;;;5015975;28;20389;-60
2021/12/08 03:59:29;;;;;;;1.08;0.50;;;19.90;48.50;;;;;;5016061;28;20046;-60
2021/12/08 04:01:54;;;;;;;1.40;0.40;;;19.90;48.50;;;;;;5014679;28;20058;-60
2021/12/08 04:04:25;;;;;;;1.25;0.40;;;19.90;48.60;;;;;;4998374;28;20053;-60
2021/12/08 04:06:52;;;;;;;1.52;0.50;;;19.90;48.50;;;;;;5015476;28;20050;-60
2021/12/08 04:09:41;;;;;;;2.15;0.50;;;19.90;48.50;;;;;;5015172;28;20057;-60
2021/12/08 04:12:08;;;;;;;1.73;0.50;;;19.90;48.50;;;;;;5015810;28;20050;-60
2021/12/08 04:14:43;;;;;;;1.38;0.43;;;19.90;48.40;;;;;;5015768;28;20046;-60
2021/12/08 04:17:26;;;;;;;1.52;0.40;;;19.90;48.50;;;;;;5015198;28;20053;-60
2021/12/08 04:19:52;;;;;;;2.90;1.00;;;19.90;48.40;;;;;;4998112;28;20096;-60
2021/12/08 04:22:25;;;;;;;1.50;0.52;;;19.90;48.50;;;;;;5015739;28;20037;-60
2021/12/08 04:24:50;;;;;;;1.25;0.40;;;20.00;48.50;;;;;;5014430;28;20553;-60
2021/12/08 04:27:19;;;;;;;1.80;0.57;;;20.00;48.50;;;;;;5014928;28;20126;-60
2021/12/08 04:29:46;;;;;;;1.42;0.40;;;20.00;48.50;;;;;;5014403;28;20061;-60
2021/12/08 04:32:16;;;;;;;1.08;0.47;;;20.00;48.50;;;;;;4998055;28;20120;-60
2021/12/08 04:34:43;;;;;;;1.85;0.50;;;20.00;48.50;;;;;;5013847;28;20053;-60
2021/12/08 04:37:19;;;;;;;1.48;0.55;;;20.00;48.90;;;;;;5014883;28;20065;-60
2021/12/08 04:39:56;;;;;;;1.58;0.45;;;20.00;48.50;;;;;;5015164;28;20088;-60
2021/12/08 04:42:34;;;;;;;1.23;0.50;;;20.00;48.50;;;;;;5015412;28;20038;-60
2021/12/08 04:45:07;;;;;;;1.45;0.50;;;20.00;48.50;;;;;;5014165;28;20552;-60
2021/12/08 04:47:48;;;;;;;1.70;0.60;;;20.00;48.50;;;;;;5014049;28;20038;-61
2021/12/08 04:50:30;;;;;;;0.77;0.47;;;20.00;48.50;;;;;;5015155;28;20057;-60
2021/12/08 04:53:07;;;;;;;2.20;0.50;;;20.00;48.50;;;;;;5013867;28;20505;-60
2021/12/08 05:01:18;;;;;;;1.20;0.52;;;20.00;48.50;;;;;;5020241;28;20081;-60
2021/12/08 05:06:59;;;;;;;1.60;0.40;;;20.00;48.50;;;;;;5033137;28;20489;-60
2021/12/08 05:09:32;;;;;;;2.72;0.50;;;20.00;48.50;;;;;;5034292;28;20481;-60
2021/12/08 05:12:01;;;;;;;1.27;0.40;;;20.10;48.60;;;;;;5033501;28;20056;-60
2021/12/08 05:14:29;;;;;;;1.50;0.40;;;20.10;48.60;;;;;;5034446;28;20052;-60
2021/12/08 05:16:58;;;;;;;1.33;0.50;;;20.10;48.60;;;;;;5034069;28;20497;-60
2021/12/08 05:19:26;;;;;;;1.67;0.50;;;20.10;49.00;;;;;;5033662;28;20371;-60
2021/12/08 05:22:09;;;;;;;1.90;0.45;;;20.10;48.60;;;;;;5033971;28;20041;-60
2021/12/08 05:24:37;;;;;;;1.33;0.35;;;20.10;48.60;;;;;;5034240;28;20065;-60
2021/12/08 05:27:05;;;;;;;;;;;20.10;48.60;;;;;;5033519;28;20049;-60
2021/12/08 05:29:33;;;;;;;1.73;0.40;;;20.10;48.70;;;;;;5033968;28;19921;-60
2021/12/08 05:32:01;;;;;;;1.27;0.47;;;20.10;48.60;;;;;;5033880;28;20044;-60
2021/12/08 05:34:26;;;;;;;1.30;0.40;;;20.10;48.60;;;;;;5033157;28;20045;-60
2021/12/08 05:36:52;;;;;;;2.45;0.50;;;20.10;48.70;;;;;;5033794;28;20037;-60
2021/12/08 05:39:20;;;;;;;0.75;0.40;;;20.10;48.70;;;;;;5032927;28;20045;-61
2021/12/08 05:41:46;;;;;;;2.63;0.60;;;20.10;48.70;;;;;;5032803;28;20065;-61
2021/12/08 05:44:12;;;;;;;1.30;0.40;;;20.10;48.70;;;;;;5034112;28;20046;-61
2021/12/08 05:46:42;;;;;;;1.25;0.40;;;20.20;48.80;;;;;;5033940;28;20091;-60
2021/12/08 05:49:08;;;;;;;0.75;0.30;;;20.10;48.70;;;;;;5032680;28;20088;-60
2021/12/08 05:51:34;;;;;;;0.85;0.40;;;20.20;48.80;;;;;;5033751;28;20068;-60
2021/12/08 05:54:06;;;;;;;1.50;0.50;;;20.10;48.70;;;;;;5033228;28;20485;-60
2021/12/08 05:56:31;;;;;;;1.17;0.50;;;20.20;48.80;;;;;;5015525;28;20053;-60
2021/12/08 05:58:58;;;;;;;1.40;0.45;;;20.20;48.80;;;;;;5015671;28;20100;-60
2021/12/08 06:01:34;;;;;;;2.42;0.50;;;20.20;48.80;;;;;;5032509;28;20057;-61
2021/12/08 06:04:00;;;;;;;0.95;0.40;;;20.20;48.80;;;;;;5033108;28;20052;-61
2021/12/08 06:06:25;;;;;;;1.70;0.38;;;20.20;48.80;;;;;;5032999;28;20042;-61
2021/12/08 06:08:51;;;;;;;1.38;0.40;;;20.20;48.80;;;;;;5032399;28;20046;-61
2021/12/08 06:11:17;;;;;;;2.08;0.55;;;20.20;48.80;;;;;;5033646;28;20076;-60
2021/12/08 06:13:43;;;;;;;0.90;0.40;;;20.20;48.80;;;;;;5033261;28;20057;-60
2021/12/08 06:16:10;;;;;;;1.35;0.57;;;20.20;48.80;;;;;;5032431;28;20116;-61
2021/12/08 06:18:39;;;;;;;1.58;0.50;;;20.20;48.80;;;;;;5033418;28;20102;-61
2021/12/08 06:21:08;;;;;;;1.88;0.40;;;20.20;48.80;;;;;;5032898;28;20052;-59
2021/12/08 06:23:34;;;;;;;0.95;0.40;;;20.20;48.90;;;;;;5032628;28;20037;-61
2021/12/08 06:26:00;;;;;;;2.40;0.73;;;20.30;48.90;;;;;;5032855;28;20481;-61
2021/12/08 06:28:25;;;;;;;1.10;0.50;;;20.20;48.90;;;;;;5033304;28;20045;-61
2021/12/08 06:30:51;;;;;;;1.08;0.50;;;20.20;48.90;;;;;;5014084;28;20112;-60
2021/12/08 06:33:17;;;;;;;1.02;0.50;;;20.20;49.00;;;;;;5033289;28;20075;-61
2021/12/08 06:35:49;;;;;;;2.20;0.70;;;20.20;48.90;;;;;;5032615;28;20096;-61
2021/12/08 06:38:15;;;;;;;2.13;0.60;;;20.20;48.90;;;;;;5032184;28;20417;-59
2021/12/08 06:40:53;;;;;;;1.17;0.40;;;20.20;49.60;;;;;;5031479;28;20052;-60
2021/12/08 06:43:21;;;;;;;1.65;0.70;;;20.20;49.00;;;;;;5032896;28;20073;-60
2021/12/08 06:45:49;;;;;;;1.58;0.50;;;20.20;49.00;;;;;;5032642;28;20051;-60
2021/12/08 06:48:18;;;;;;;1.13;0.50;;;20.20;48.90;;;;;;5015200;28;20041;-60
2021/12/08 06:50:47;;;;;;;1.38;0.57;;;20.20;49.00;;;;;;5031063;28;20052;-60
2021/12/08 06:53:12;;;;;;;1.45;0.60;;;20.30;49.10;;;;;;5015025;28;20045;-60
2021/12/08 06:55:42;;;;;;;1.85;0.50;;;20.30;49.10;;;;;;5032486;28;20475;-61
2021/12/08 06:58:11;;;;;;;3.30;0.50;;;20.30;49.10;;;;;;5032222;28;20045;-60
2021/12/08 07:03:47;;;;;;;3.00;0.73;;;20.30;49.00;;;;;;5032900;28;20049;-59
2021/12/08 07:06:40;;;;;;;2.40;0.60;;;20.30;49.10;;;;;;5031885;28;20038;-59
2021/12/08 07:09:04;;;;;;;3.78;0.80;;;20.30;49.10;;;;;;5032072;28;20052;-59
2021/12/08 07:11:31;;;;;;;1.52;0.70;;;20.30;49.10;;;;;;5032183;28;20045;-59
2021/12/08 07:13:56;;;;;;;3.00;0.68;;;20.30;49.10;;;;;;5032198;28;20084;-59
2021/12/08 07:16:25;;;;;;;1.63;0.60;;;20.30;49.10;;;;;;5032409;28;20041;-60
2021/12/08 07:19:00;;;;;;;2.55;0.68;;;20.40;49.20;;;;;;5031454;28;20049;-59
2021/12/08 07:21:32;;;;;;;3.33;0.80;;;20.30;49.20;;;;;;5032414;28;20045;-60
2021/12/08 07:24:08;;;;;;;4.15;0.70;;;20.30;49.20;;;;;;5023433;28;20048;-59
2021/12/08 07:26:36;;;;;;;2.95;0.85;;;20.30;49.40;;;;;;5030531;28;20091;-59
2021/12/08 07:29:02;;;;;;;3.28;0.77;;;20.30;49.40;;;;;;5031923;28;20046;-59
2021/12/08 07:31:32;;;;;;;5.18;1.00;;;20.30;49.40;;;;;;5032662;28;20055;-59
2021/12/08 07:34:03;;;;;;;1.95;0.57;;;20.30;49.50;;;;;;5031547;28;20107;-59
2021/12/08 07:36:29;;;;;;;4.10;0.68;;;20.30;49.70;;;;;;5032018;28;20042;-59
2021/12/08 07:38:55;;;;;;;1.85;0.68;;;20.30;49.90;;;;;;5032306;28;20124;-58
2021/12/08 07:41:29;;;;;;;1.45;0.63;;;20.30;50.00;;;;;;5031554;28;20128;-59
2021/12/08 07:43:55;;;;;;;4.25;0.75;;;20.40;50.20;;;;;;5032051;28;20096;-59
2021/12/08 07:46:30;;;;;;;3.22;0.60;;;20.40;50.10;;;;;;5032294;28;20033;-59
2021/12/08 07:48:59;;;;;;;3.08;0.75;;;20.40;50.20;;;;;;5031175;28;20049;-59
2021/12/08 07:51:32;;;;;;;4.43;0.70;;;20.40;50.40;;;;;;5014503;28;20038;-59
2021/12/08 07:53:58;;;;;;;1.50;0.60;;;20.40;50.30;;;;;;5031293;28;20050;-59
2021/12/08 07:56:23;;;;;;;3.05;0.70;;;20.40;50.40;;;;;;5014329;28;20672;-60
2021/12/08 07:58:55;;;;;;;2.28;0.70;;;20.40;50.50;;;;;;5031916;28;20069;-59
2021/12/08 08:01:24;;;;;;;2.00;0.65;;;20.40;50.50;;;;;;5013209;28;20054;-59
2021/12/08 08:03:50;;;;;;;3.55;0.70;;;20.40;50.50;;;;;;5016966;28;20131;-59
2021/12/08 08:06:23;;;;;;;2.00;0.70;;;20.50;50.70;;;;;;5020938;28;20057;-59
2021/12/08 08:08:49;;;;;;;1.65;0.40;;;20.40;50.70;;;;;;5022896;28;20414;-58
2021/12/08 08:11:29;;;;;;;3.25;0.80;;;20.50;50.90;;;;;;5025777;28;20050;-58
2021/12/08 08:13:55;;;;;;;2.83;0.80;;;20.50;51.10;;;;;;5026141;28;20033;-59
2021/12/08 08:16:23;;;;;;;2.47;0.60;;;20.50;51.10;;;;;;5017741;28;20083;-59
2021/12/08 08:18:53;;;;;;;2.03;0.50;;;20.50;51.20;;;;;;5015673;28;20041;-59
2021/12/08 08:21:25;;;;;;;1.50;0.70;;;20.50;51.20;;;;;;5015398;28;20532;-59
2021/12/08 08:23:51;;;;;;;2.20;0.75;;;20.50;51.30;;;;;;5014774;28;20050;-59
2021/12/08 08:26:16;;;;;;;2.10;0.60;;;20.50;51.10;;;;;;5015760;28;20042;-60
2021/12/08 08:28:44;;;;;;;2.47;0.60;;;20.50;51.10;;;;;;4998024;28;20046;-60
2021/12/08 08:31:12;;;;;;;1.20;0.65;;;20.50;51.20;;;;;;5014538;28;20069;-60
2021/12/08 08:33:39;;;;;;;;;;;20.50;51.10;;;;;;5015912;28;20046;-59
2021/12/08 08:36:07;;;;;;;2.70;0.70;;;20.50;51.10;;;;;;4996640;28;19972;-60
2021/12/08 08:38:54;;;;;;;2.42;0.70;;;20.50;51.10;;;;;;5015515;28;20553;-59
2021/12/08 08:41:41;;;;;;;3.75;0.73;;;20.50;51.10;;;;;;4997621;28;20046;-59
2021/12/08 08:44:17;;;;;;;2.42;0.60;;;20.50;51.30;;;;;;5014386;28;20049;-59
2021/12/08 08:46:45;;;;;;;4.57;0.80;;;20.50;51.30;;;;;;5024175;28;20033;-59
2021/12/08 08:49:17;;;;;;;3.63;0.90;;;20.60;51.40;;;;;;5009321;28;20053;-60
2021/12/08 08:51:49;;;;;;;2.35;0.95;;;20.60;51.30;;;;;;5017155;28;20042;-60
2021/12/08 08:54:21;;;;;;;3.50;0.70;;;20.60;51.20;;;;;;5015099;28;20117;-60
2021/12/08 08:56:56;;;;;;;3.00;0.98;;;20.60;51.20;;;;;;4996919;28;20494;-60
2021/12/08 08:59:29;;;;;;;4.25;0.90;;;20.60;51.20;;;;;;5014136;28;20489;-61
2021/12/08 09:01:55;;;;;;;3.83;0.85;;;20.60;51.20;;;;;;5014319;28;20054;-60
2021/12/08 09:04:34;;;;;;;3.78;1.30;;;20.60;51.10;;;;;;5013859;28;20060;-61
2021/12/08 09:07:02;;;;;;;3.40;0.90;;;20.60;50.90;;;;;;5013464;28;20038;-60
2021/12/08 09:09:29;;;;;;;;;;;20.60;50.80;;;;;;5015447;28;20069;-60
2021/12/08 09:12:09;;;;;;;3.08;0.85;;;20.60;51.00;;;;;;5014012;28;20017;-60
2021/12/08 09:14:55;;;;;;;4.55;1.00;;;20.60;50.80;;;;;;5014536;28;20124;-60
2021/12/08 09:17:30;;;;;;;3.65;1.20;;;20.60;50.80;;;;;;5014279;28;20042;-60
2021/12/08 09:20:01;;;;;;;2.97;1.00;;;20.60;50.80;;;;;;5013414;28;20121;-60
2021/12/08 09:22:44;;;;;;;4.97;1.10;;;20.60;50.70;;;;;;5014562;28;20080;-60
2021/12/08 09:25:12;;;;;;;4.60;0.95;;;20.70;50.80;;;;;;5013997;28;20505;-61
2021/12/08 09:27:44;;;;;;;4.07;1.05;;;20.70;50.90;;;;;;4996812;28;20061;-60
2021/12/08 09:30:13;;;;;;;3.90;1.10;;;20.70;50.80;;;;;;4996777;28;20092;-60
2021/12/08 09:32:51;;;;;;;4.22;1.27;;;20.70;51.50;;;;;;5013802;28;20565;-60
2021/12/08 09:35:22;;;;;;;6.00;1.25;;;20.70;50.70;;;;;;5014297;28;20042;-60
2021/12/08 09:37:54;;;;;;;6.20;1.27;;;20.70;50.70;;;;;;5014099;28;20053;-60
2021/12/08 09:40:27;;;;;;;3.70;1.10;;;20.80;50.70;;;;;;5013398;28;20512;-60
2021/12/08 09:42:58;;;;;;;3.47;0.95;;;20.80;50.70;;;;;;5013961;28;20033;-60
2021/12/08 09:45:32;;;;;;;3.10;1.23;;;20.70;50.60;;;;;;4996650;28;20413;-61
2021/12/08 09:48:01;;;;;;;4.13;1.35;;;20.70;50.60;;;;;;5013260;28;20100;-60
2021/12/08 09:50:26;;;;;;;3.83;1.40;;;20.80;50.60;;;;;;5013761;28;20046;-60
2021/12/08 09:52:52;;;;;;;3.92;1.42;;;20.70;50.60;;;;;;5013854;28;20065;-60
2021/12/08 09:55:18;;;;;;;4.47;1.35;;;20.70;50.50;;;;;;4995739;28;20137;-60
2021/12/08 09:57:44;;;;;;;3.10;1.00;;;20.80;50.60;;;;;;5013255;28;20049;-61
2021/12/08 10:00:15;;;;;;;4.05;1.15;;;20.80;50.60;;;;;;5014091;28;20046;-60
2021/12/08 10:02:41;;;;;;;3.53;1.05;;;20.80;50.60;;;;;;5012790;28;20064;-60
2021/12/08 10:05:15;;;;;;;3.78;1.58;;;20.70;50.50;;;;;;5013480;28;20122;-60
2021/12/08 10:07:40;;;;;;;2.97;1.25;;;20.80;50.50;;;;;;4995485;28;20049;-60
2021/12/08 10:10:07;;;;;;;3.58;1.40;;;20.70;50.40;;;;;;5013843;28;20096;-60
2021/12/08 10:12:34;;;;;;;3.47;1.20;;;20.70;50.40;;;;;;5013926;28;20088;-60
2021/12/08 10:15:01;;;;;;;3.40;1.33;;;20.70;50.40;;;;;;5012430;28;20999;-61
2021/12/08 10:17:26;;;;;;;4.88;1.33;;;20.70;50.40;;;;;;5013545;28;20046;-60
2021/12/08 10:20:12;;;;;;;3.97;1.30;;;20.70;50.30;;;;;;4995628;28;20072;-61
2021/12/08 10:22:37;;;;;;;4.18;1.27;;;20.70;50.30;;;;;;5012936;28;20228;-60
2021/12/08 10:25:11;;;;;;;4.13;1.50;;;20.80;50.40;;;;;;5012714;28;20069;-60
2021/12/08 10:28:07;;;;;;;3.10;1.38;;;20.80;50.40;;;;;;5013658;28;20042;-60
2021/12/08 10:30:45;;;;;;;4.53;1.40;;;20.80;50.30;;;;;;5012801;28;20136;-60
2021/12/08 10:33:35;;;;;;;3.42;1.10;;;20.70;50.30;;;;;;5013580;28;20073;-60
2021/12/08 10:36:03;;;;;;;3.35;1.38;;;20.80;50.10;;;;;;5012107;28;20056;-61
2021/12/08 10:38:35;;;;;;;3.67;1.95;;;20.70;49.90;;;;;;5011991;28;20072;-61
2021/12/08 10:41:04;;;;;;;4.70;2.03;;;20.70;48.70;;;;;;5016752;28;20500;-61
2021/12/08 10:43:30;;;;;;;5.82;2.30;;;20.70;48.60;;;;;;5031705;28;20124;-61
2021/12/08 10:46:04;;;;;;;4.88;1.90;;;20.70;48.60;;;;;;5032755;28;20179;-61
2021/12/08 10:48:36;;;;;;;5.30;2.20;;;20.60;48.50;;;;;;5032791;28;20041;-61
2021/12/08 10:56:38;;;;;;;4.47;1.85;;;20.70;48.70;;;;;;5032667;28;20049;-61
2021/12/08 10:59:04;;;;;;;7.13;1.80;;;20.70;48.70;;;;;;5030496;28;20045;-60
2021/12/08 11:01:29;;;;;;;5.30;1.98;;;20.70;48.80;;;;;;5025236;28;20114;-61
2021/12/08 11:04:03;;;;;;;6.93;1.80;;;20.70;48.90;;;;;;5031241;28;20815;-60
2021/12/08 11:06:35;;;;;;;5.13;1.80;;;20.70;49.00;;;;;;5024864;28;20061;-61
2021/12/08 11:09:02;;;;;;;6.65;2.25;;;20.70;49.10;;;;;;5011734;28;20050;-61
2021/12/08 11:11:32;;;;;;;5.32;1.70;;;20.70;49.20;;;;;;5021154;28;20080;-61
2021/12/08 11:14:03;;;;;;;4.90;1.50;;;20.80;49.30;;;;;;5027685;28;20049;-61
2021/12/08 11:16:38;;;;;;;3.92;1.42;;;20.80;49.40;;;;;;5032627;28;20050;-61
2021/12/08 11:19:09;;;;;;;5.45;1.60;;;20.80;49.50;;;;;;5031503;28;20042;-61
2021/12/08 11:21:59;;;;;;;4.40;1.70;;;20.80;49.50;;;;;;5032221;28;20091;-61
2021/12/08 11:24:37;;;;;;;3.80;1.27;;;20.80;49.60;;;;;;5032345;28;20045;-61
2021/12/08 11:27:05;;;;;;;6.43;1.50;;;20.80;49.60;;;;;;5031620;28;20473;-61
2021/12/08 11:29:33;;;;;;;4.30;1.15;;;20.80;49.70;;;;;;5015012;28;20084;-61
2021/12/08 11:32:07;;;;;;;5.30;1.45;;;20.80;49.80;;;;;;5031387;28;20112;-61
2021/12/08 11:34:40;;;;;;;3.78;1.10;;;20.80;50.40;;;;;;5031893;28;20493;-61
2021/12/08 11:37:13;;;;;;;4.53;1.55;;;20.80;49.70;;;;;;5034511;28;20045;-61
2021/12/08 11:39:40;;;;;;;2.80;1.10;;;20.80;49.80;;;;;;5035669;28;20041;-61
2021/12/08 11:42:14;;;;;;;5.40;1.35;;;20.80;49.80;;;;;;5018480;28;20120;-61
2021/12/08 11:44:42;;;;;;;4.05;1.23;;;20.80;49.90;;;;;;5018568;28;20474;-61
2021/12/08 11:47:12;;;;;;;2.88;1.30;;;20.90;50.00;;;;;;5035110;28;20056;-61
2021/12/08 11:49:46;;;;;;;3.70;1.05;;;20.90;50.00;;;;;;5018083;28;20103;-61
2021/12/08 11:52:18;;;;;;;14.77;1.42;;;20.90;50.00;;;;;;5021941;28;20073;-61
2021/12/08 11:54:56;;;;;;;3.28;1.42;;;20.90;50.10;;;;;;5019110;28;20537;-60
2021/12/08 11:57:33;;;;;;;6.10;1.10;;;20.90;50.40;;;;;;5004321;28;20049;-61
2021/12/08 12:00:21;;;;;;;4.50;1.47;;;20.90;50.60;;;;;;5018756;28;20038;-60
2021/12/08 12:02:55;;;;;;;4.93;1.15;;;20.90;50.70;;;;;;5009148;28;20486;-61
2021/12/08 12:05:40;;;;;;;4.95;1.40;;;20.90;50.70;;;;;;5016973;28;20038;-61
2021/12/08 12:08:08;;;;;;;3.53;1.30;;;20.90;51.40;;;;;;5015358;28;20496;-61
2021/12/08 12:10:35;;;;;;;4.73;1.17;;;20.90;50.50;;;;;;4998231;28;20049;-60
2021/12/08 12:13:03;;;;;;;3.95;0.90;;;21.00;50.40;;;;;;5015443;28;20417;-61
2021/12/08 12:15:29;;;;;;;4.15;1.10;;;21.00;50.50;;;;;;5015125;28;20046;-61
2021/12/08 12:17:54;;;;;;;3.63;1.15;;;20.90;50.40;;;;;;4997786;28;20100;-60
2021/12/08 12:20:28;;;;;;;2.80;1.10;;;21.00;50.50;;;;;;5015540;28;20046;-61
2021/12/08 12:23:31;;;;;;;3.80;1.10;;;21.00;50.60;;;;;;5013565;28;20053;-60
2021/12/08 12:26:15;;;;;;;3.13;1.02;;;21.00;50.60;;;;;;5015516;28;20046;-61
2021/12/08 12:28:46;;;;;;;4.10;1.20;;;21.00;50.60;;;;;;5013540;28;20046;-61
2021/12/08 12:31:21;;;;;;;3.55;0.90;;;21.00;50.50;;;;;;5015236;28;20042;-60
2021/12/08 12:33:48;;;;;;;1.77;0.82;;;21.00;50.50;;;;;;4997718;28;20103;-61
2021/12/08 12:36:22;;;;;;;5.15;1.10;;;20.90;50.30;;;;;;4996890;28;20054;-59
2021/12/08 12:38:47;;;;;;;5.55;1.17;;;21.00;50.10;;;;;;5000492;28;20056;-61
2021/12/08 12:41:30;;;;;;;3.95;1.00;;;21.00;50.10;;;;;;5034952;28;20045;-61
2021/12/08 12:44:22;;;;;;;8.05;1.30;;;20.90;50.10;;;;;;5015044;28;20077;-61
2021/12/08 12:47:08;;;;;;;5.38;0.90;;;21.00;50.30;;;;;;5034657;28;20042;-61
2021/12/08 12:49:34;;;;;;;2.90;0.90;;;21.00;50.40;;;;;;5032924;28;20456;-61
2021/12/08 12:52:05;;;;;;;5.90;0.80;;;21.00;50.50;;;;;;5034442;28;20648;-61
2021/12/08 12:54:30;;;;;;;5.63;1.20;;;21.00;50.50;;;;;;5033108;28;20409;-61
2021/12/08 12:56:56;;;;;;;3.80;1.00;;;21.00;50.50;;;;;;5015291;28;20469;-61
2021/12/08 12:59:24;;;;;;;4.47;0.90;;;21.00;50.50;;;;;;5034488;28;20072;-61
2021/12/08 13:02:10;;;;;;;3.08;1.05;;;21.00;50.50;;;;;;5033252;28;20517;-61
2021/12/08 13:04:59;;;;;;;6.10;1.13;;;21.00;50.50;;;;;;5015318;28;20147;-61
2021/12/08 13:07:25;;;;;;;3.60;0.90;;;21.00;50.80;;;;;;5033891;28;20076;-61
2021/12/08 13:09:53;;;;;;;2.25;0.70;;;21.00;50.90;;;;;;5033871;28;20490;-60
2021/12/08 13:12:26;;;;;;;3.53;0.80;;;21.10;50.80;;;;;;5033122;28;20041;-61
2021/12/08 13:15:14;;;;;;;3.00;0.88;;;21.00;50.90;;;;;;5033573;28;20452;-61
2021/12/08 13:17:58;;;;;;;4.75;0.90;;;21.10;51.10;;;;;;5033683;28;20052;-61
2021/12/08 13:20:27;;;;;;;5.55;1.00;;;21.10;51.20;;;;;;5033681;28;20049;-61
2021/12/08 13:22:54;;;;;;;4.38;0.90;;;21.10;51.20;;;;;;5026635;28;20038;-61
2021/12/08 13:25:42;;;;;;;5.53;1.33;;;21.10;51.30;;;;;;4995293;28;20052;-62
2021/12/08 13:28:17;;;;;;;5.50;0.95;;;21.10;51.30;;;;;;5014254;28;20058;-61
2021/12/08 13:30:51;;;;;;;3.13;0.90;;;21.10;51.30;;;;;;4996515;28;20402;-60
2021/12/08 13:33:36;;;;;;;4.07;0.80;;;21.20;51.40;;;;;;5012974;28;20462;-60
2021/12/08 13:36:19;;;;;;;2.72;0.70;;;21.20;51.40;;;;;;5013567;28;20053;-61
2021/12/08 13:38:45;;;;;;;2.40;0.55;;;21.20;51.40;;;;;;4995220;28;20426;-61
2021/12/08 13:41:15;;;;;;;4.93;0.82;;;21.20;51.50;;;;;;5013218;28;20042;-61